createdAt,value
2023-05-14T00:00:28.038Z,13.90
2023-05-14T00:03:19.756Z,13.70
2023-05-14T00:05:52.165Z,13.61
2023-05-14T00:08:23.816Z,13.72
2023-05-14T00:10:56.080Z,13.86
2023-05-14T00:13:28.746Z,13.93
2023-05-14T00:16:00.561Z,13.88
2023-05-14T00:18:32.483Z,13.70
2023-05-14T00:21:04.340Z,13.63
2023-05-14T00:23:36.465Z,13.71
2023-05-14T00:26:08.362Z,13.79
2023-05-14T00:28:40.151Z,13.77
2023-05-14T00:31:11.892Z,13.79
2023-05-14T00:33:43.725Z,13.80
2023-05-14T00:36:15.654Z,13.83
2023-05-14T00:38:47.381Z,13.78
2023-05-14T00:41:19.298Z,13.75
2023-05-14T00:43:51.040Z,13.74
2023-05-14T00:46:22.884Z,13.69
2023-05-14T00:48:56.641Z,13.62
2023-05-14T00:51:27.030Z,13.42
2023-05-14T00:53:58.990Z,13.33
2023-05-14T00:56:30.999Z,13.29
2023-05-14T00:59:02.896Z,13.16
2023-05-14T01:01:34.790Z,13.28
2023-05-14T01:04:08.404Z,13.28
2023-05-14T01:06:48.458Z,13.21
2023-05-14T01:09:26.287Z,13.24
2023-05-14T01:12:06.774Z,13.29
2023-05-14T01:14:45.072Z,13.32
2023-05-14T01:17:20.074Z,13.23
2023-05-14T01:19:53.484Z,13.11
2023-05-14T01:22:25.661Z,13.10
2023-05-14T01:24:57.682Z,13.16
2023-05-14T01:27:36.045Z,13.03
2023-05-14T01:30:15.149Z,12.97
2023-05-14T01:32:49.265Z,12.90
2023-05-14T01:35:23.403Z,12.89
2023-05-14T01:37:57.142Z,12.97
2023-05-14T01:40:30.742Z,12.91
2023-05-14T01:43:03.348Z,12.84
2023-05-14T01:45:37.823Z,12.79
2023-05-14T01:48:09.794Z,12.80
2023-05-14T01:50:41.722Z,12.82
2023-05-14T01:53:13.524Z,12.82
2023-05-14T01:55:46.464Z,12.73
2023-05-14T01:58:19.900Z,12.67
2023-05-14T02:00:51.591Z,12.58
2023-05-14T02:03:23.906Z,12.63
2023-05-14T02:05:55.980Z,12.74
2023-05-14T02:08:27.709Z,12.85
2023-05-14T02:10:59.466Z,12.99
2023-05-14T02:13:31.123Z,13.05
2023-05-14T02:16:03.331Z,13.11
2023-05-14T02:18:35.001Z,13.11
2023-05-14T02:21:07.300Z,13.01
2023-05-14T02:23:41.928Z,13.10
2023-05-14T02:26:14.328Z,13.13
2023-05-14T02:28:46.538Z,13.15
2023-05-14T02:31:19.284Z,13.19
2023-05-14T02:33:51.079Z,13.24
2023-05-14T02:36:22.827Z,13.06
2023-05-14T02:38:54.460Z,12.84
2023-05-14T02:41:26.902Z,12.87
2023-05-14T02:43:58.579Z,12.95
2023-05-14T02:46:31.560Z,12.92
2023-05-14T02:49:03.925Z,12.90
2023-05-14T02:51:36.049Z,12.80
2023-05-14T02:54:08.033Z,12.68
2023-05-14T02:56:39.686Z,12.45
2023-05-14T02:59:11.646Z,12.31
2023-05-14T03:01:43.803Z,12.22
2023-05-14T03:04:16.489Z,12.31
2023-05-14T03:06:48.219Z,12.34
2023-05-14T03:09:19.877Z,12.35
2023-05-14T03:11:52.050Z,12.24
2023-05-14T03:14:23.698Z,12.12
2023-05-14T03:16:55.646Z,12.15
2023-05-14T03:19:27.462Z,12.09
2023-05-14T03:21:59.280Z,11.97
2023-05-14T03:24:31.532Z,12.07
2023-05-14T03:27:03.295Z,12.28
2023-05-14T03:29:35.105Z,12.33
2023-05-14T03:32:08.095Z,12.41
2023-05-14T03:34:39.967Z,12.35
2023-05-14T03:37:12.032Z,12.31
2023-05-14T03:39:43.822Z,12.29
2023-05-14T03:42:15.841Z,12.22
2023-05-14T03:44:47.711Z,12.25
2023-05-14T03:47:20.445Z,12.38
2023-05-14T03:49:52.219Z,12.43
2023-05-14T03:52:24.679Z,12.48
2023-05-14T03:54:56.290Z,12.67
2023-05-14T03:57:27.991Z,12.75
2023-05-14T04:00:01.218Z,12.82
2023-05-14T04:02:33.155Z,13.00
2023-05-14T04:05:05.469Z,13.06
2023-05-14T04:07:37.817Z,13.14
2023-05-14T04:10:11.518Z,13.20
2023-05-14T04:12:44.003Z,13.24
2023-05-14T04:15:15.838Z,13.29
2023-05-14T04:17:48.089Z,13.25
2023-05-14T04:20:20.126Z,13.29
2023-05-14T04:22:51.749Z,13.35
2023-05-14T04:25:24.076Z,13.38
2023-05-14T04:27:55.722Z,13.32
2023-05-14T04:30:27.718Z,13.38
2023-05-14T04:32:59.433Z,13.37
2023-05-14T04:35:31.207Z,13.34
2023-05-14T04:38:03.031Z,13.41
2023-05-14T04:40:34.768Z,13.48
2023-05-14T04:43:06.651Z,13.57
2023-05-14T04:45:38.322Z,13.59
2023-05-14T04:48:11.016Z,13.64
2023-05-14T04:50:43.752Z,13.72
2023-05-14T04:53:14.028Z,13.88
2023-05-14T04:55:45.769Z,13.99
2023-05-14T04:58:17.605Z,14.09
2023-05-14T05:00:49.360Z,14.23
2023-05-14T05:03:21.248Z,14.35
2023-05-14T05:05:53.003Z,14.45
2023-05-14T05:08:24.758Z,14.53
2023-05-14T05:10:56.415Z,14.62
2023-05-14T05:13:28.099Z,14.68
2023-05-14T05:16:00.003Z,14.77
2023-05-14T05:18:32.309Z,14.86
2023-05-14T05:21:04.150Z,14.92
2023-05-14T05:23:36.101Z,14.94
2023-05-14T05:26:07.865Z,14.95
2023-05-14T05:28:40.137Z,14.98
2023-05-14T05:31:12.182Z,15.03
2023-05-14T05:33:44.114Z,15.06
2023-05-14T05:36:15.773Z,15.13
2023-05-14T05:38:47.514Z,15.19
2023-05-14T05:41:19.266Z,15.22
2023-05-14T05:43:51.046Z,15.28
2023-05-14T05:46:22.814Z,15.36
2023-05-14T05:48:55.009Z,15.43
2023-05-14T05:51:26.702Z,15.47
2023-05-14T05:53:58.454Z,15.52
2023-05-14T05:56:30.779Z,15.59
2023-05-14T05:59:04.048Z,15.65
2023-05-14T06:01:36.218Z,15.71
2023-05-14T06:04:08.638Z,15.72
2023-05-14T06:06:39.105Z,15.79
2023-05-14T06:09:11.358Z,15.89
2023-05-14T06:11:43.035Z,15.97
2023-05-14T06:14:14.845Z,16.07
2023-05-14T06:16:46.610Z,16.08
2023-05-14T06:19:18.600Z,16.13
2023-05-14T06:21:50.433Z,16.20
2023-05-14T06:24:22.254Z,16.28
2023-05-14T06:26:54.376Z,16.33
2023-05-14T06:29:26.311Z,16.34
2023-05-14T06:32:05.615Z,16.33
2023-05-14T06:34:37.442Z,16.32
2023-05-14T06:37:09.533Z,16.31
2023-05-14T06:39:44.111Z,16.35
2023-05-14T06:42:15.815Z,16.37
2023-05-14T06:44:47.974Z,16.44
2023-05-14T06:47:20.116Z,16.52
2023-05-14T06:49:55.919Z,16.68
2023-05-14T06:52:27.972Z,16.82
2023-05-14T06:54:59.770Z,16.89
2023-05-14T06:57:35.545Z,17.03
2023-05-14T07:00:10.832Z,17.11
2023-05-14T07:02:42.758Z,17.22
2023-05-14T07:05:14.763Z,17.30
2023-05-14T07:07:46.551Z,17.25
2023-05-14T07:10:18.822Z,17.19
2023-05-14T07:12:51.970Z,17.20
2023-05-14T07:15:23.691Z,17.18
2023-05-14T07:17:55.683Z,17.14
2023-05-14T07:20:27.742Z,17.16
2023-05-14T07:22:59.897Z,17.20
2023-05-14T07:25:32.622Z,17.24
2023-05-14T07:28:02.944Z,17.28
2023-05-14T07:30:34.712Z,17.33
2023-05-14T07:33:07.037Z,17.41
2023-05-14T07:35:39.363Z,17.46
2023-05-14T07:38:11.208Z,17.50
2023-05-14T07:40:43.376Z,17.58
2023-05-14T07:43:15.110Z,17.64
2023-05-14T07:45:48.026Z,17.66
2023-05-14T07:48:19.873Z,17.75
2023-05-14T07:50:52.432Z,17.83
2023-05-14T07:53:24.961Z,17.92
2023-05-14T07:55:55.279Z,17.98
2023-05-14T07:58:27.752Z,18.02
2023-05-14T08:01:01.366Z,18.06
2023-05-14T08:03:33.192Z,18.07
2023-05-14T08:06:05.080Z,18.13
2023-05-14T08:08:36.878Z,18.19
2023-05-14T08:11:09.050Z,18.24
2023-05-14T08:13:41.480Z,18.37
2023-05-14T08:16:13.321Z,18.44
2023-05-14T08:18:45.083Z,18.48
2023-05-14T08:21:16.965Z,18.49
2023-05-14T08:23:48.737Z,18.59
2023-05-14T08:26:21.627Z,18.64
2023-05-14T08:28:53.870Z,18.65
2023-05-14T08:31:25.633Z,18.66
2023-05-14T08:33:57.426Z,18.68
2023-05-14T08:36:29.230Z,18.73
2023-05-14T08:39:01.166Z,18.82
2023-05-14T08:41:33.160Z,18.96
2023-05-14T08:44:13.559Z,19.11
2023-05-14T08:46:45.533Z,19.20
2023-05-14T08:49:30.037Z,19.21
2023-05-14T08:52:02.763Z,19.21
2023-05-14T08:54:32.958Z,19.22
2023-05-14T08:57:06.117Z,19.23
2023-05-14T08:59:38.036Z,19.30
2023-05-14T09:02:15.316Z,19.41
2023-05-14T09:04:48.584Z,19.52
2023-05-14T09:07:21.204Z,19.65
2023-05-14T09:09:54.156Z,19.75
2023-05-14T09:12:26.174Z,19.81
2023-05-14T09:14:57.915Z,19.87
2023-05-14T09:17:29.913Z,19.92
2023-05-14T09:20:02.332Z,20.01
2023-05-14T09:22:35.938Z,20.03
2023-05-14T09:25:11.914Z,20.13
2023-05-14T09:27:43.768Z,20.26
2023-05-14T09:30:17.037Z,20.34
2023-05-14T09:32:50.566Z,20.52
2023-05-14T09:35:24.258Z,20.66
2023-05-14T09:37:56.970Z,20.68
2023-05-14T09:40:27.438Z,20.78
2023-05-14T09:43:01.896Z,20.91
2023-05-14T09:45:33.924Z,21.02
2023-05-14T09:48:06.610Z,21.01
2023-05-14T09:50:44.549Z,21.06
2023-05-14T09:53:17.629Z,21.16
2023-05-14T09:55:50.717Z,21.26
2023-05-14T09:58:22.533Z,21.41
2023-05-14T10:00:58.393Z,21.49
2023-05-14T10:03:31.895Z,21.61
2023-05-14T10:06:08.709Z,21.70
2023-05-14T10:08:44.950Z,21.81
2023-05-14T10:11:21.451Z,21.91
2023-05-14T10:13:59.929Z,22.02
2023-05-14T10:16:35.260Z,21.97
2023-05-14T10:19:09.539Z,21.92
2023-05-14T10:21:46.078Z,22.03
2023-05-14T10:24:19.382Z,22.07
2023-05-14T10:26:51.349Z,22.09
2023-05-14T10:29:32.378Z,22.10
2023-05-14T10:32:07.443Z,22.16
2023-05-14T10:34:42.478Z,22.14
2023-05-14T10:37:15.891Z,22.12
2023-05-14T10:39:50.723Z,22.35
2023-05-14T10:42:25.776Z,22.33
2023-05-14T10:44:59.053Z,22.28
2023-05-14T10:47:32.151Z,22.30
2023-05-14T10:50:07.081Z,22.41
2023-05-14T10:52:39.455Z,22.35
2023-05-14T10:55:14.180Z,22.36
2023-05-14T10:57:47.530Z,22.30
2023-05-14T11:00:20.758Z,22.25
2023-05-14T11:02:57.549Z,22.32
2023-05-14T11:05:29.416Z,22.29
2023-05-14T11:08:04.343Z,22.25
2023-05-14T11:10:36.771Z,22.25
2023-05-14T11:13:08.436Z,22.28
2023-05-14T11:15:47.133Z,22.28
2023-05-14T11:18:30.931Z,22.21
2023-05-14T11:21:03.207Z,22.17
2023-05-14T11:23:35.343Z,22.17
2023-05-14T11:26:08.018Z,22.18
2023-05-14T11:28:39.945Z,22.27
2023-05-14T11:31:12.813Z,22.33
2023-05-14T11:33:45.152Z,22.29
2023-05-14T11:36:16.884Z,22.22
2023-05-14T11:38:52.322Z,22.22
2023-05-14T11:41:24.541Z,22.26
2023-05-14T11:43:56.371Z,22.29
2023-05-14T11:46:30.126Z,22.43
2023-05-14T11:49:04.766Z,22.66
2023-05-14T11:51:37.193Z,22.82
2023-05-14T11:54:08.979Z,22.72
2023-05-14T11:56:40.862Z,22.60
2023-05-14T11:59:13.596Z,22.38
2023-05-14T12:01:48.071Z,22.22
2023-05-14T12:04:22.745Z,22.13
2023-05-14T12:06:55.794Z,22.03
2023-05-14T12:09:28.250Z,21.94
2023-05-14T12:11:58.565Z,21.90
2023-05-14T12:14:30.327Z,21.87
2023-05-14T12:17:04.351Z,21.74
2023-05-14T12:19:40.516Z,21.67
2023-05-14T12:22:14.632Z,21.59
2023-05-14T12:24:55.860Z,21.56
2023-05-14T12:27:29.539Z,21.52
2023-05-14T12:32:41.597Z,21.50
2023-05-14T12:35:13.631Z,21.49
2023-05-14T12:37:45.462Z,21.60
2023-05-14T12:40:17.455Z,21.75
2023-05-14T12:42:49.310Z,21.83
2023-05-14T12:45:21.121Z,21.92
2023-05-14T12:47:54.822Z,21.99
2023-05-14T12:50:27.004Z,22.10
2023-05-14T12:52:58.876Z,22.16
2023-05-14T12:55:30.944Z,22.28
2023-05-14T12:58:04.398Z,22.26
2023-05-14T13:00:39.835Z,22.16
2023-05-14T13:03:12.996Z,22.11
2023-05-14T13:05:46.572Z,22.04
2023-05-14T13:08:21.583Z,21.94
2023-05-14T13:10:53.694Z,21.86
2023-05-14T13:13:26.257Z,21.66
2023-05-14T13:15:58.083Z,21.61
2023-05-14T13:18:29.889Z,21.57
2023-05-14T13:21:04.296Z,21.54
2023-05-14T13:23:36.063Z,21.57
2023-05-14T13:26:08.463Z,21.64
2023-05-14T13:28:40.246Z,21.86
2023-05-14T13:31:14.445Z,22.17
2023-05-14T13:33:46.790Z,22.31
2023-05-14T13:36:18.473Z,22.39
2023-05-14T13:38:50.287Z,22.38
2023-05-14T13:41:23.523Z,22.46
2023-05-14T13:43:55.358Z,22.50
2023-05-14T13:46:27.228Z,22.61
2023-05-14T13:48:59.052Z,22.61
2023-05-14T13:51:31.350Z,22.49
2023-05-14T13:54:03.316Z,22.37
2023-05-14T13:56:35.536Z,22.33
2023-05-14T13:59:07.339Z,22.26
2023-05-14T14:01:39.089Z,22.32
2023-05-14T14:04:10.989Z,22.31
2023-05-14T14:06:43.011Z,22.36
2023-05-14T14:09:14.792Z,22.28
2023-05-14T14:11:46.674Z,22.18
2023-05-14T14:14:19.057Z,22.16
2023-05-14T14:16:50.833Z,22.14
2023-05-14T14:19:22.911Z,22.13
2023-05-14T14:21:54.727Z,22.52
2023-05-14T14:24:26.537Z,22.80
2023-05-14T14:26:58.278Z,23.02
2023-05-14T14:29:31.128Z,23.41
2023-05-14T14:32:03.178Z,23.62
2023-05-14T14:34:35.184Z,23.76
2023-05-14T14:37:07.296Z,23.79
2023-05-14T14:39:39.228Z,23.57
2023-05-14T14:42:11.181Z,23.35
2023-05-14T14:44:42.954Z,23.03
2023-05-14T14:47:14.856Z,22.84
2023-05-14T14:49:48.811Z,22.71
2023-05-14T14:52:20.942Z,22.65
2023-05-14T14:54:53.131Z,22.52
2023-05-14T14:57:25.135Z,22.74
2023-05-14T14:59:56.870Z,23.27
2023-05-14T15:02:28.900Z,23.71
2023-05-14T15:05:01.081Z,24.06
2023-05-14T15:07:33.337Z,24.32
2023-05-14T15:10:05.695Z,24.50
2023-05-14T15:12:37.512Z,24.87
2023-05-14T15:15:12.308Z,25.03
2023-05-14T15:17:44.450Z,24.80
2023-05-14T15:20:16.756Z,24.58
2023-05-14T15:22:49.107Z,24.23
2023-05-14T15:25:21.857Z,23.83
2023-05-14T15:27:54.065Z,23.59
2023-05-14T15:30:25.885Z,23.49
2023-05-14T15:32:58.083Z,23.46
2023-05-14T15:35:29.908Z,23.48
2023-05-14T15:38:01.612Z,23.65
2023-05-14T15:40:35.039Z,23.86
2023-05-14T15:43:07.128Z,23.72
2023-05-14T15:45:38.905Z,23.52
2023-05-14T15:48:10.766Z,23.29
2023-05-14T15:50:43.245Z,23.14
2023-05-14T15:53:13.451Z,22.95
2023-05-14T15:55:46.206Z,22.86
2023-05-14T15:58:17.924Z,22.62
2023-05-14T16:00:50.116Z,22.47
2023-05-14T16:03:21.852Z,22.41
2023-05-14T16:05:53.616Z,22.33
2023-05-14T16:08:25.804Z,22.16
2023-05-14T16:10:57.610Z,22.05
2023-05-14T16:13:29.385Z,22.12
2023-05-14T16:16:01.246Z,22.19
2023-05-14T16:18:33.847Z,22.30
2023-05-14T16:21:04.400Z,22.35
2023-05-14T16:23:36.730Z,22.53
2023-05-14T16:26:09.237Z,22.57
2023-05-14T16:28:42.754Z,22.49
2023-05-14T16:31:15.382Z,22.39
2023-05-14T16:33:47.224Z,22.32
2023-05-14T16:36:19.164Z,22.44
2023-05-14T16:39:06.687Z,22.57
2023-05-14T16:41:39.814Z,23.06
2023-05-14T16:44:11.654Z,23.35
2023-05-14T16:46:43.435Z,23.49
2023-05-14T16:49:15.280Z,23.65
2023-05-14T16:51:48.761Z,23.36
2023-05-14T16:54:20.669Z,23.21
2023-05-14T16:56:52.554Z,23.00
2023-05-14T16:59:25.145Z,22.75
2023-05-14T17:01:57.474Z,22.55
2023-05-14T17:04:29.476Z,22.53
2023-05-14T17:07:02.112Z,22.49
2023-05-14T17:09:34.815Z,22.41
2023-05-14T17:12:07.510Z,22.41
2023-05-14T17:14:39.401Z,22.38
2023-05-14T17:17:11.389Z,22.30
2023-05-14T17:19:43.183Z,22.19
2023-05-14T17:22:15.521Z,22.13
2023-05-14T17:24:47.973Z,22.06
2023-05-14T17:27:19.767Z,22.03
2023-05-14T17:29:51.927Z,21.97
2023-05-14T17:32:23.855Z,21.81
2023-05-14T17:34:56.361Z,21.77
2023-05-14T17:37:28.693Z,21.75
2023-05-14T17:40:00.570Z,21.60
2023-05-14T17:42:32.696Z,21.53
2023-05-14T17:45:05.230Z,21.48
2023-05-14T17:47:35.484Z,21.42
2023-05-14T17:50:10.282Z,21.19
2023-05-14T17:52:44.165Z,21.14
2023-05-14T17:55:17.380Z,21.11
2023-05-14T17:57:49.310Z,21.14
2023-05-14T18:00:21.909Z,21.16
2023-05-14T18:02:52.198Z,21.12
2023-05-14T18:05:24.666Z,21.14
2023-05-14T18:07:58.312Z,21.22
2023-05-14T18:10:30.473Z,21.31
2023-05-14T18:13:02.309Z,21.26
2023-05-14T18:15:34.407Z,21.09
2023-05-14T18:18:05.849Z,20.99
2023-05-14T18:20:37.690Z,20.82
2023-05-14T18:23:09.435Z,20.74
2023-05-14T18:25:41.751Z,20.67
2023-05-14T18:28:13.660Z,20.59
2023-05-14T18:30:45.703Z,20.53
2023-05-14T18:33:18.217Z,20.48
2023-05-14T18:35:49.983Z,20.42
2023-05-14T18:38:21.742Z,20.29
2023-05-14T18:40:53.533Z,20.26
2023-05-14T18:43:26.131Z,20.16
2023-05-14T18:45:56.489Z,20.09
2023-05-14T18:48:28.674Z,20.00
2023-05-14T18:51:01.064Z,19.93
2023-05-14T18:53:33.368Z,19.86
2023-05-14T18:56:05.577Z,19.83
2023-05-14T18:58:37.354Z,19.79
2023-05-14T19:01:09.313Z,19.74
2023-05-14T19:03:42.125Z,19.67
2023-05-14T19:06:14.165Z,19.61
2023-05-14T19:08:46.399Z,19.57
2023-05-14T19:11:18.713Z,19.53
2023-05-14T19:13:50.441Z,19.53
2023-05-14T19:16:23.170Z,19.50
2023-05-14T19:18:55.070Z,19.74
2023-05-14T19:21:26.880Z,20.00
2023-05-14T19:23:58.589Z,20.11
2023-05-14T19:26:30.505Z,19.91
2023-05-14T19:29:02.638Z,19.80
2023-05-14T19:31:34.568Z,19.64
2023-05-14T19:34:06.397Z,19.50
2023-05-14T19:36:38.233Z,19.46
2023-05-14T19:39:10.493Z,19.36
2023-05-14T19:41:42.209Z,19.28
2023-05-14T19:44:13.916Z,19.19
2023-05-14T19:46:45.659Z,19.18
2023-05-14T19:49:17.596Z,19.15
2023-05-14T19:51:49.434Z,19.06
2023-05-14T19:54:21.256Z,19.06
2023-05-14T19:56:53.041Z,19.05
2023-05-14T19:59:24.815Z,18.97
2023-05-14T20:01:56.795Z,18.92
2023-05-14T20:04:28.547Z,18.89
2023-05-14T20:07:00.785Z,18.86
2023-05-14T20:09:32.582Z,18.78
2023-05-14T20:12:07.525Z,18.74
2023-05-14T20:14:39.360Z,18.73
2023-05-14T20:17:11.300Z,18.69
2023-05-14T20:19:43.801Z,18.68
2023-05-14T20:22:16.801Z,18.67
2023-05-14T20:24:48.562Z,18.67
2023-05-14T20:27:20.759Z,18.66
2023-05-14T20:29:54.026Z,18.65
2023-05-14T20:32:26.057Z,18.57
2023-05-14T20:35:01.836Z,18.51
2023-05-14T20:37:34.330Z,18.54
2023-05-14T20:40:06.231Z,18.53
2023-05-14T20:42:38.701Z,18.50
2023-05-14T20:45:13.074Z,18.51
2023-05-14T20:47:45.046Z,18.50
2023-05-14T20:50:16.862Z,18.49
2023-05-14T20:52:48.603Z,18.50
2023-05-14T20:55:21.746Z,18.47
2023-05-14T20:57:53.736Z,18.43
2023-05-14T21:00:25.951Z,18.40
2023-05-14T21:02:59.528Z,18.32
2023-05-14T21:05:31.569Z,18.33
2023-05-14T21:08:03.476Z,18.30
2023-05-14T21:10:35.228Z,18.31
2023-05-14T21:13:08.078Z,18.28
2023-05-14T21:15:38.326Z,18.26
2023-05-14T21:18:10.383Z,18.27
2023-05-14T21:20:42.801Z,18.29
2023-05-14T21:23:14.656Z,18.31
2023-05-14T21:25:46.808Z,18.31
2023-05-14T21:28:18.549Z,18.30
2023-05-14T21:30:53.048Z,18.12
2023-05-14T21:33:25.697Z,18.16
2023-05-14T21:35:57.457Z,18.11
2023-05-14T21:38:29.354Z,18.02
2023-05-14T21:41:01.110Z,17.94
2023-05-14T21:43:32.836Z,17.84
2023-05-14T21:46:04.709Z,17.84
2023-05-14T21:48:36.535Z,17.88
2023-05-14T21:51:08.740Z,17.78
2023-05-14T21:53:43.342Z,17.74
2023-05-14T21:56:15.116Z,17.74
2023-05-14T21:58:47.084Z,17.72
2023-05-14T22:01:18.901Z,17.66
2023-05-14T22:03:51.380Z,17.70
2023-05-14T22:06:23.361Z,17.63
2023-05-14T22:08:55.102Z,17.62
2023-05-14T22:11:26.751Z,17.54
2023-05-14T22:13:58.796Z,17.55
2023-05-14T22:16:30.575Z,17.54
2023-05-14T22:19:02.876Z,17.54
2023-05-14T22:21:35.760Z,17.47
2023-05-14T22:24:08.437Z,17.45
2023-05-14T22:26:40.225Z,17.49
2023-05-14T22:29:11.957Z,17.51
2023-05-14T22:31:43.954Z,17.44
2023-05-14T22:34:16.088Z,17.45
2023-05-14T22:36:48.247Z,17.47
2023-05-14T22:39:20.293Z,17.47
2023-05-14T22:41:55.386Z,17.45
2023-05-14T22:44:29.690Z,17.46
2023-05-14T22:47:01.786Z,17.39
2023-05-14T22:49:33.559Z,17.31
2023-05-14T22:52:05.744Z,17.25
2023-05-14T22:54:37.442Z,17.22
2023-05-14T22:57:11.141Z,17.25
2023-05-14T22:59:42.885Z,17.24
2023-05-14T23:02:14.605Z,17.29
2023-05-14T23:04:46.440Z,17.31
2023-05-14T23:07:18.355Z,17.36
2023-05-14T23:09:50.082Z,17.36
2023-05-14T23:12:21.903Z,17.40
2023-05-14T23:14:53.937Z,17.34
2023-05-14T23:17:26.087Z,17.26
2023-05-14T23:19:57.943Z,17.26
2023-05-14T23:22:29.685Z,17.24
2023-05-14T23:25:01.473Z,17.27
2023-05-14T23:27:33.343Z,17.31
2023-05-14T23:30:05.859Z,17.34
2023-05-14T23:32:37.592Z,17.31
2023-05-14T23:35:11.627Z,17.22
2023-05-14T23:37:47.228Z,17.20
2023-05-14T23:40:19.590Z,17.11
2023-05-14T23:42:51.578Z,17.14
2023-05-14T23:45:26.607Z,17.10
2023-05-14T23:47:59.968Z,17.09
2023-05-14T23:50:32.173Z,17.13
2023-05-14T23:53:03.867Z,17.13
2023-05-14T23:55:35.813Z,17.06
2023-05-14T23:58:07.610Z,16.99
